createdAt,value
2023-05-17T00:01:45.584Z,7.00
2023-05-17T00:04:13.925Z,6.70
2023-05-17T00:06:42.154Z,7.20
2023-05-17T00:09:11.445Z,6.90
2023-05-17T00:11:39.450Z,7.80
2023-05-17T00:14:07.345Z,7.80
2023-05-17T00:16:35.264Z,8.50
2023-05-17T00:19:03.582Z,8.20
2023-05-17T00:21:31.911Z,7.60
2023-05-17T00:23:59.846Z,8.00
2023-05-17T00:26:28.493Z,7.50
2023-05-17T00:28:56.450Z,6.80
2023-05-17T00:31:24.428Z,8.10
2023-05-17T00:33:52.711Z,6.90
2023-05-17T00:36:21.137Z,8.10
2023-05-17T00:38:49.219Z,7.20
2023-05-17T00:41:18.318Z,6.90
2023-05-17T00:43:47.259Z,8.80
2023-05-17T00:46:16.398Z,7.00
2023-05-17T00:48:44.867Z,7.50
2023-05-17T00:51:16.463Z,7.10
2023-05-17T00:53:45.782Z,6.20
2023-05-17T00:56:14.174Z,7.10
2023-05-17T00:58:43.116Z,7.90
2023-05-17T01:01:11.697Z,7.60
2023-05-17T01:03:39.693Z,8.10
2023-05-17T01:06:08.273Z,7.10
2023-05-17T01:08:36.598Z,7.30
2023-05-17T01:11:39.886Z,7.10
2023-05-17T01:14:33.008Z,7.80
2023-05-17T01:17:18.791Z,7.00
2023-05-17T01:20:06.886Z,7.70
2023-05-17T01:23:12.200Z,8.30
2023-05-17T01:26:07.617Z,9.10
2023-05-17T01:31:10.654Z,11.40
2023-05-17T01:33:39.920Z,8.50
2023-05-17T01:36:09.531Z,7.40
2023-05-17T01:38:37.869Z,6.60
2023-05-17T01:41:28.771Z,7.70
2023-05-17T01:44:19.056Z,7.10
2023-05-17T01:46:48.221Z,6.40
2023-05-17T01:49:27.781Z,7.30
2023-05-17T01:52:09.427Z,8.50
2023-05-17T01:55:13.412Z,7.00
2023-05-17T01:57:45.119Z,7.00
2023-05-17T02:00:15.577Z,7.80
2023-05-17T02:02:45.767Z,6.80
2023-05-17T02:05:14.837Z,7.90
2023-05-17T02:07:43.005Z,6.70
2023-05-17T02:10:11.915Z,6.90
2023-05-17T02:12:43.236Z,8.60
2023-05-17T02:15:12.238Z,6.60
2023-05-17T02:17:41.059Z,7.50
2023-05-17T02:20:10.766Z,7.50
2023-05-17T02:22:39.237Z,8.30
2023-05-17T02:25:08.691Z,6.60
2023-05-17T02:27:36.838Z,6.20
2023-05-17T02:30:06.845Z,6.70
2023-05-17T02:32:35.108Z,6.90
2023-05-17T02:35:04.315Z,6.90
2023-05-17T02:37:32.385Z,7.90
2023-05-17T02:40:00.823Z,6.90
2023-05-17T02:42:28.917Z,7.40
2023-05-17T02:44:58.182Z,7.00
2023-05-17T02:47:26.381Z,6.00
2023-05-17T02:49:54.645Z,6.40
2023-05-17T02:52:22.625Z,6.20
2023-05-17T02:54:51.836Z,10.90
2023-05-17T02:57:20.335Z,6.20
2023-05-17T02:59:48.696Z,6.50
2023-05-17T03:02:16.835Z,6.70
2023-05-17T03:04:45.098Z,6.50
2023-05-17T03:07:13.732Z,6.50
2023-05-17T03:09:42.971Z,7.90
2023-05-17T03:12:11.563Z,6.10
2023-05-17T03:14:40.056Z,7.00
2023-05-17T03:17:08.356Z,7.80
2023-05-17T03:19:36.755Z,8.30
2023-05-17T03:22:05.148Z,6.20
2023-05-17T03:24:34.599Z,8.10
2023-05-17T03:27:02.794Z,6.50
2023-05-17T03:29:30.946Z,6.10
2023-05-17T03:31:59.274Z,6.40
2023-05-17T03:34:27.277Z,5.90
2023-05-17T03:36:55.407Z,5.80
2023-05-17T03:39:23.595Z,7.10
2023-05-17T03:41:51.881Z,7.00
2023-05-17T03:44:20.006Z,6.90
2023-05-17T03:46:49.432Z,7.10
2023-05-17T03:49:18.678Z,7.00
2023-05-17T03:51:47.099Z,6.50
2023-05-17T03:54:15.390Z,6.50
2023-05-17T03:56:49.223Z,6.20
2023-05-17T03:59:18.944Z,7.10
2023-05-17T04:01:47.524Z,8.60
2023-05-17T04:04:15.557Z,5.30
2023-05-17T04:06:44.169Z,6.40
2023-05-17T04:09:14.010Z,6.80
2023-05-17T04:11:43.444Z,8.00
2023-05-17T04:14:12.102Z,6.30
2023-05-17T04:16:40.202Z,7.20
2023-05-17T04:19:08.558Z,8.60
2023-05-17T04:21:36.751Z,8.00
2023-05-17T04:24:05.293Z,7.90
2023-05-17T04:26:33.850Z,8.10
2023-05-17T04:29:02.057Z,6.10
2023-05-17T04:31:32.389Z,7.10
2023-05-17T04:34:02.740Z,7.90
2023-05-17T04:36:31.252Z,6.40
2023-05-17T04:38:59.608Z,7.80
2023-05-17T04:41:29.171Z,7.00
2023-05-17T04:43:57.969Z,6.90
2023-05-17T04:46:31.402Z,6.30
2023-05-17T04:49:00.408Z,6.70
2023-05-17T04:51:30.872Z,5.60
2023-05-17T04:54:01.191Z,6.30
2023-05-17T04:56:30.389Z,6.30
2023-05-17T04:58:59.162Z,6.00
2023-05-17T05:01:29.599Z,5.90
2023-05-17T05:04:00.259Z,6.30
2023-05-17T05:06:30.316Z,6.70
2023-05-17T05:08:58.888Z,5.00
2023-05-17T05:12:33.660Z,6.90
2023-05-17T05:15:02.017Z,8.50
2023-05-17T10:08:33.756Z,3.80
2023-05-17T10:11:12.304Z,5.40
2023-05-17T10:14:23.402Z,5.60
2023-05-17T10:16:53.807Z,5.10
2023-05-17T10:19:24.703Z,3.30
2023-05-17T10:21:56.613Z,5.00
2023-05-17T10:24:28.743Z,4.60
2023-05-17T10:27:00.027Z,4.40
2023-05-17T10:29:31.586Z,4.80
2023-05-17T10:32:05.059Z,5.20
2023-05-17T10:34:36.484Z,4.00
2023-05-17T10:37:06.150Z,4.50
2023-05-17T10:39:39.025Z,4.50
2023-05-17T10:44:41.008Z,3.80
2023-05-17T10:47:10.509Z,5.20
2023-05-17T10:49:41.754Z,3.50
2023-05-17T10:52:21.867Z,4.00
2023-05-17T10:54:51.326Z,4.20
2023-05-17T10:57:50.988Z,4.10
2023-05-17T11:00:27.957Z,5.10
2023-05-17T11:03:23.611Z,2.80
2023-05-17T11:06:21.962Z,6.30
2023-05-17T11:09:14.385Z,3.10
2023-05-17T11:12:07.017Z,4.80
2023-05-17T11:14:56.280Z,3.90
2023-05-17T11:17:35.950Z,4.50
2023-05-17T11:20:30.038Z,4.60
2023-05-17T11:23:14.658Z,3.80
2023-05-17T11:25:43.140Z,4.00
2023-05-17T11:28:23.681Z,4.20
2023-05-17T11:31:01.609Z,5.20
2023-05-17T11:34:00.326Z,5.00
2023-05-17T11:36:29.874Z,3.70
2023-05-17T11:39:17.792Z,4.90
2023-05-17T11:41:58.384Z,4.30
2023-05-17T11:44:33.595Z,5.10
2023-05-17T11:47:11.696Z,4.40
2023-05-17T11:49:41.077Z,4.40
2023-05-17T11:52:09.227Z,3.60
2023-05-17T11:54:40.787Z,4.40
2023-05-17T11:57:11.777Z,5.10
2023-05-17T11:59:40.463Z,4.00
2023-05-17T12:02:10.170Z,4.70
2023-05-17T12:04:39.889Z,6.50
2023-05-17T12:07:11.892Z,4.30
2023-05-17T12:09:40.894Z,5.10
2023-05-17T12:12:09.988Z,5.40
2023-05-17T12:14:38.124Z,5.50
2023-05-17T12:17:09.938Z,5.70
2023-05-17T12:19:38.380Z,5.10
2023-05-17T12:22:15.512Z,4.80
2023-05-17T12:24:44.538Z,5.70
2023-05-17T12:27:13.475Z,4.60
2023-05-17T12:29:42.363Z,5.60
2023-05-17T12:32:11.431Z,5.60
2023-05-17T12:34:40.929Z,6.30
2023-05-17T12:37:11.025Z,4.80
2023-05-17T12:39:40.928Z,5.10
2023-05-17T12:42:10.291Z,5.70
2023-05-17T12:44:39.912Z,6.60
2023-05-17T12:47:10.545Z,5.70
2023-05-17T12:49:40.653Z,5.20
2023-05-17T12:52:10.834Z,6.70
2023-05-17T12:54:40.275Z,6.50
2023-05-17T12:57:15.746Z,7.50
2023-05-17T12:59:52.049Z,6.30
2023-05-17T13:02:21.511Z,6.30
2023-05-17T13:04:50.124Z,5.60
2023-05-17T13:07:24.593Z,6.70
2023-05-17T13:09:53.525Z,6.50
2023-05-17T13:12:25.229Z,6.20
2023-05-17T13:14:55.085Z,6.30
2023-05-17T13:17:37.110Z,6.90
2023-05-17T13:20:10.546Z,6.70
2023-05-17T13:22:47.169Z,6.80
2023-05-17T13:25:16.006Z,6.60
2023-05-17T13:27:49.011Z,6.50
2023-05-17T13:30:18.789Z,6.80
2023-05-17T13:32:47.806Z,7.60
2023-05-17T13:35:16.733Z,6.00
2023-05-17T13:37:45.720Z,6.20
2023-05-17T13:40:14.845Z,6.50
2023-05-17T13:42:43.694Z,6.60
2023-05-17T13:45:13.913Z,7.50
2023-05-17T13:47:42.282Z,7.00
2023-05-17T13:50:12.260Z,6.00
2023-05-17T13:52:41.615Z,6.70
2023-05-17T13:55:10.194Z,6.40
2023-05-17T13:57:38.571Z,5.90
2023-05-17T14:00:09.031Z,7.10
2023-05-17T14:02:37.399Z,6.50
2023-05-17T14:05:07.505Z,7.10
2023-05-17T14:07:41.768Z,6.80
2023-05-17T14:10:12.961Z,6.20
2023-05-17T14:12:42.379Z,6.60
2023-05-17T14:15:11.152Z,7.50
2023-05-17T14:17:39.312Z,5.80
2023-05-17T14:20:10.588Z,5.80
2023-05-17T14:22:38.952Z,6.80
2023-05-17T14:25:08.694Z,8.20
2023-05-17T14:27:37.140Z,7.70
2023-05-17T14:30:06.706Z,7.00
2023-05-17T14:32:36.518Z,6.30
2023-05-17T14:35:07.927Z,7.40
2023-05-17T14:37:36.454Z,6.10
2023-05-17T14:40:07.110Z,7.30
2023-05-17T14:42:35.499Z,5.90
2023-05-17T14:45:04.614Z,7.10
2023-05-17T14:47:35.138Z,6.70
2023-05-17T14:50:05.790Z,8.00
2023-05-17T14:52:35.164Z,7.30
2023-05-17T14:55:05.106Z,6.00
2023-05-17T14:57:34.071Z,6.50
2023-05-17T15:00:03.476Z,6.50
2023-05-17T15:02:31.915Z,7.00
2023-05-17T15:05:03.763Z,7.20
2023-05-17T15:07:33.327Z,7.40
2023-05-17T15:10:01.720Z,7.50
2023-05-17T15:12:30.010Z,6.20
2023-05-17T15:14:58.891Z,6.30
2023-05-17T15:17:27.254Z,7.60
2023-05-17T15:19:55.631Z,6.10
2023-05-17T15:22:24.760Z,6.70
2023-05-17T15:24:54.633Z,6.60
2023-05-17T15:27:22.607Z,6.60
2023-05-17T15:29:50.735Z,7.60
2023-05-17T15:32:18.995Z,6.80
2023-05-17T15:34:47.157Z,7.40
2023-05-17T15:37:15.925Z,7.80
2023-05-17T15:39:44.224Z,9.20
2023-05-17T15:42:12.301Z,7.60
2023-05-17T15:44:40.599Z,6.20
2023-05-17T15:47:08.577Z,6.60
2023-05-17T15:49:36.610Z,6.60
2023-05-17T15:52:05.640Z,6.90
2023-05-17T15:54:33.824Z,7.10
2023-05-17T15:57:02.546Z,9.40
2023-05-17T15:59:30.552Z,6.10
2023-05-17T16:01:58.587Z,7.10
2023-05-17T16:04:26.627Z,7.80
2023-05-17T16:06:54.729Z,6.70
2023-05-17T16:09:23.012Z,6.50
2023-05-17T16:11:51.504Z,6.80
2023-05-17T16:14:19.626Z,6.70
2023-05-17T16:16:47.743Z,7.90
2023-05-17T16:19:15.994Z,9.90
2023-05-17T16:21:44.726Z,8.60
2023-05-17T16:24:12.772Z,7.00
2023-05-17T16:26:41.559Z,8.20
2023-05-17T16:29:13.843Z,6.60
2023-05-17T16:31:42.165Z,6.80
2023-05-17T16:34:11.443Z,7.90
2023-05-17T16:36:39.895Z,7.60
2023-05-17T16:39:08.185Z,8.40
2023-05-17T16:41:37.471Z,6.30
2023-05-17T16:44:06.058Z,6.70
2023-05-17T16:46:34.486Z,6.60
2023-05-17T16:49:03.169Z,6.50
2023-05-17T16:51:31.899Z,6.50
2023-05-17T16:54:00.325Z,7.80
2023-05-17T16:56:30.459Z,6.20
2023-05-17T16:59:00.981Z,6.40
2023-05-17T17:01:29.586Z,8.50
2023-05-17T17:03:59.336Z,6.90
2023-05-17T17:06:27.959Z,6.90
2023-05-17T17:08:58.040Z,6.00
2023-05-17T17:11:28.723Z,8.00
2023-05-17T17:13:58.960Z,6.80
2023-05-17T17:16:28.134Z,6.70
2023-05-17T17:18:56.817Z,9.40
2023-05-17T17:21:25.787Z,7.30
2023-05-17T17:23:54.236Z,7.30
2023-05-17T17:26:22.646Z,6.90
2023-05-17T17:28:51.744Z,8.20
2023-05-17T17:31:20.770Z,7.00
2023-05-17T17:33:49.302Z,7.30
2023-05-17T17:36:18.170Z,6.80
2023-05-17T17:38:46.827Z,7.40
2023-05-17T17:41:15.048Z,7.00
2023-05-17T17:43:47.054Z,6.40
2023-05-17T17:46:16.369Z,7.40
2023-05-17T17:48:45.017Z,7.50
2023-05-17T17:51:13.810Z,6.30
2023-05-17T17:53:42.302Z,6.20
2023-05-17T17:56:11.190Z,7.70
2023-05-17T17:58:39.596Z,8.00
2023-05-17T18:01:08.132Z,9.20
2023-05-17T18:03:36.662Z,7.20
2023-05-17T18:06:05.618Z,6.10
2023-05-17T18:08:34.230Z,5.60
2023-05-17T18:11:02.901Z,7.90
2023-05-17T18:13:32.607Z,6.20
2023-05-17T18:16:01.249Z,8.00
2023-05-17T18:18:29.655Z,7.60
2023-05-17T18:20:59.277Z,8.40
2023-05-17T18:23:27.862Z,6.70
2023-05-17T18:25:56.231Z,7.90
2023-05-17T18:28:38.017Z,9.00
2023-05-17T18:31:12.057Z,11.30
2023-05-17T18:33:40.313Z,11.10
2023-05-17T18:36:09.501Z,13.50
2023-05-17T18:38:37.597Z,11.50
2023-05-17T18:41:06.077Z,11.20
2023-05-17T18:43:34.452Z,10.30
2023-05-17T18:46:03.129Z,7.80
2023-05-17T18:48:36.211Z,10.30
2023-05-17T18:51:04.520Z,10.00
2023-05-17T18:53:32.924Z,7.60
2023-05-17T18:56:02.709Z,10.40
2023-05-17T18:58:31.260Z,8.30
2023-05-17T19:01:01.562Z,9.70
2023-05-17T19:03:30.418Z,9.10
2023-05-17T19:05:59.266Z,9.60
2023-05-17T19:08:28.175Z,8.40
2023-05-17T19:10:56.957Z,7.50
2023-05-17T19:13:27.413Z,10.70
2023-05-17T19:15:55.973Z,7.50
2023-05-17T19:18:24.806Z,9.60
2023-05-17T19:20:53.840Z,9.20
2023-05-17T19:23:22.144Z,10.00
2023-05-17T19:25:51.724Z,7.50
2023-05-17T19:28:20.539Z,9.50
2023-05-17T19:30:50.118Z,10.90
2023-05-17T19:33:18.642Z,11.80
2023-05-17T19:35:47.519Z,11.80
2023-05-17T19:38:17.215Z,9.20
2023-05-17T19:40:46.446Z,8.30
2023-05-17T19:43:14.940Z,10.80
2023-05-17T19:45:45.173Z,9.60
2023-05-17T19:48:13.798Z,8.40
2023-05-17T19:50:42.497Z,7.70
2023-05-17T19:53:10.449Z,9.60
2023-05-17T19:55:41.190Z,6.90
2023-05-17T19:58:09.469Z,9.30
2023-05-17T20:00:38.512Z,8.50
2023-05-17T20:03:07.063Z,8.10
2023-05-17T20:05:35.218Z,10.10
2023-05-17T20:08:05.551Z,8.40
2023-05-17T20:10:34.324Z,9.40
2023-05-17T20:13:02.934Z,7.50
2023-05-17T20:15:31.702Z,8.00
2023-05-17T20:17:59.781Z,6.40
2023-05-17T20:20:28.035Z,7.20
2023-05-17T20:22:56.216Z,7.70
2023-05-17T20:25:24.322Z,8.70
2023-05-17T20:27:52.799Z,10.40
2023-05-17T20:30:20.953Z,8.30
2023-05-17T20:32:49.074Z,7.30
2023-05-17T20:35:17.305Z,6.80
2023-05-17T20:37:45.365Z,7.60
2023-05-17T20:40:13.906Z,7.50
2023-05-17T20:42:42.947Z,6.40
2023-05-17T20:45:13.194Z,5.30
2023-05-17T20:47:42.725Z,5.40
2023-05-17T20:50:14.263Z,7.40
2023-05-17T20:52:42.709Z,11.60
2023-05-17T20:55:11.188Z,7.30
2023-05-17T20:57:39.398Z,5.30
2023-05-17T21:00:11.884Z,10.40
2023-05-17T21:02:40.171Z,7.20
2023-05-17T21:05:10.938Z,6.30
2023-05-17T21:07:39.555Z,5.20
2023-05-17T21:10:09.768Z,6.20
2023-05-17T21:12:40.507Z,7.50
2023-05-17T21:15:17.057Z,7.40
2023-05-17T21:17:45.817Z,5.20
2023-05-17T21:20:14.694Z,6.10
2023-05-17T21:22:42.878Z,6.00
2023-05-17T21:25:11.095Z,5.80
2023-05-17T21:27:39.026Z,4.30
2023-05-17T21:30:08.703Z,6.00
2023-05-17T21:32:36.799Z,5.80
2023-05-17T21:35:05.839Z,6.30
2023-05-17T21:37:37.193Z,6.10
2023-05-17T21:40:07.633Z,5.50
2023-05-17T21:42:36.098Z,5.50
2023-05-17T21:45:05.222Z,6.20
2023-05-17T21:47:36.238Z,4.50
2023-05-17T21:50:05.138Z,6.10
2023-05-17T21:52:33.984Z,5.50
2023-05-17T21:55:02.129Z,5.70
2023-05-17T21:57:30.367Z,5.30
2023-05-17T21:59:58.442Z,5.30
2023-05-17T22:02:26.811Z,7.10
2023-05-17T22:04:55.013Z,7.80
2023-05-17T22:07:23.296Z,5.60
2023-05-17T22:09:51.363Z,5.40
2023-05-17T22:12:25.658Z,4.30
2023-05-17T22:14:56.196Z,6.40
2023-05-17T22:17:43.193Z,4.60
2023-05-17T22:22:52.144Z,8.10
2023-05-17T22:25:20.477Z,7.70
2023-05-17T22:27:48.725Z,4.30
2023-05-17T22:30:16.907Z,5.90
2023-05-17T22:32:45.002Z,6.90
2023-05-17T22:35:13.597Z,6.20
2023-05-17T22:37:42.870Z,6.10
2023-05-17T22:40:11.232Z,5.40
2023-05-17T22:42:39.830Z,3.90
2023-05-17T22:45:08.684Z,5.30
2023-05-17T22:47:36.882Z,5.20
2023-05-17T22:50:06.500Z,5.60
2023-05-17T22:52:34.977Z,7.60
2023-05-17T22:55:02.913Z,7.30
2023-05-17T22:57:31.098Z,6.00
2023-05-17T22:59:59.169Z,5.50
2023-05-17T23:02:27.349Z,4.60
2023-05-17T23:04:55.937Z,5.50
2023-05-17T23:07:24.515Z,5.00
2023-05-17T23:09:53.859Z,4.20
2023-05-17T23:12:21.800Z,4.90
2023-05-17T23:14:49.775Z,4.90
2023-05-17T23:17:18.467Z,6.00
2023-05-17T23:19:46.407Z,6.40
2023-05-17T23:22:14.393Z,7.50
2023-05-17T23:24:42.652Z,6.40
2023-05-17T23:27:12.876Z,5.30
2023-05-17T23:29:43.664Z,5.40
2023-05-17T23:32:11.635Z,5.60
2023-05-17T23:34:39.571Z,5.70
2023-05-17T23:37:07.528Z,5.10
2023-05-17T23:39:35.490Z,4.90
2023-05-17T23:42:04.580Z,4.90
2023-05-17T23:44:35.016Z,5.50
2023-05-17T23:47:04.413Z,6.10
2023-05-17T23:49:32.400Z,5.50
2023-05-17T23:52:02.043Z,6.00
2023-05-17T23:54:30.263Z,4.80
2023-05-17T23:56:58.448Z,4.60
2023-05-17T23:59:27.129Z,5.10
